sensor_id;sensor_type;location;lat;lon;timestamp;pressure;altitude;pressure_sealevel;temperature;humidity
71774;BME280;59607;52.130;5.430;2024-03-08T00:02:06;102024.69;;;2.96;100.00
71774;BME280;59607;52.130;5.430;2024-03-08T00:04:33;102023.09;;;2.93;100.00
71774;BME280;59607;52.130;5.430;2024-03-08T00:07:06;102014.56;;;2.91;100.00
71774;BME280;59607;52.130;5.430;2024-03-08T00:09:33;102017.16;;;2.91;100.00
71774;BME280;59607;52.130;5.430;2024-03-08T00:12:03;102016.31;;;2.91;100.00
71774;BME280;59607;52.130;5.430;2024-03-08T00:14:34;102012.97;;;2.89;100.00
71774;BME280;59607;52.130;5.430;2024-03-08T00:17:10;102016.41;;;2.89;100.00
71774;BME280;59607;52.130;5.430;2024-03-08T00:19:37;102011.28;;;2.88;100.00
71774;BME280;59607;52.130;5.430;2024-03-08T00:22:04;102010.53;;;2.86;100.00
71774;BME280;59607;52.130;5.430;2024-03-08T00:24:30;102011.53;;;2.83;100.00
71774;BME280;59607;52.130;5.430;2024-03-08T00:26:59;102010.69;;;2.82;100.00
71774;BME280;59607;52.130;5.430;2024-03-08T00:29:32;102000.41;;;2.81;100.00
71774;BME280;59607;52.130;5.430;2024-03-08T00:31:58;102007.38;;;2.80;100.00
71774;BME280;59607;52.130;5.430;2024-03-08T00:34:25;102011.78;;;2.78;100.00
71774;BME280;59607;52.130;5.430;2024-03-08T00:36:51;102010.13;;;2.77;100.00
71774;BME280;59607;52.130;5.430;2024-03-08T00:39:18;102006.84;;;2.74;100.00
71774;BME280;59607;52.130;5.430;2024-03-08T00:41:53;101994.81;;;2.72;100.00
71774;BME280;59607;52.130;5.430;2024-03-08T00:44:35;102002.75;;;2.69;100.00
71774;BME280;59607;52.130;5.430;2024-03-08T00:47:09;102000.16;;;2.69;100.00
71774;BME280;59607;52.130;5.430;2024-03-08T00:49:37;102004.69;;;2.66;100.00
71774;BME280;59607;52.130;5.430;2024-03-08T00:52:25;101994.31;;;2.66;100.00
71774;BME280;59607;52.130;5.430;2024-03-08T00:54:59;101997.06;;;2.63;100.00
71774;BME280;59607;52.130;5.430;2024-03-08T00:57:40;101991.97;;;2.61;100.00
71774;BME280;59607;52.130;5.430;2024-03-08T01:00:14;101986.84;;;2.59;100.00
71774;BME280;59607;52.130;5.430;2024-03-08T01:02:41;101985.28;;;2.57;100.00
71774;BME280;59607;52.130;5.430;2024-03-08T01:05:10;101975.06;;;2.54;100.00
71774;BME280;59607;52.130;5.430;2024-03-08T01:07:37;101976.00;;;2.53;100.00
71774;BME280;59607;52.130;5.430;2024-03-08T01:10:04;101973.56;;;2.50;100.00
71774;BME280;59607;52.130;5.430;2024-03-08T01:12:36;101959.94;;;2.46;100.00
71774;BME280;59607;52.130;5.430;2024-03-08T01:15:02;101959.19;;;2.44;100.00
71774;BME280;59607;52.130;5.430;2024-03-08T01:17:29;101958.41;;;2.42;100.00
71774;BME280;59607;52.130;5.430;2024-03-08T01:19:56;101950.81;;;2.39;100.00
71774;BME280;59607;52.130;5.430;2024-03-08T01:22:26;101950.91;;;2.37;100.00
71774;BME280;59607;52.130;5.430;2024-03-08T01:24:54;101946.66;;;2.36;100.00
71774;BME280;59607;52.130;5.430;2024-03-08T01:27:25;101948.56;;;2.32;100.00
71774;BME280;59607;52.130;5.430;2024-03-08T01:29:55;101937.38;;;2.32;100.00
71774;BME280;59607;52.130;5.430;2024-03-08T01:32:21;101943.63;;;2.28;100.00
71774;BME280;59607;52.130;5.430;2024-03-08T01:34:52;101932.59;;;2.24;100.00
71774;BME280;59607;52.130;5.430;2024-03-08T01:37:18;101933.50;;;2.23;100.00
71774;BME280;59607;52.130;5.430;2024-03-08T01:39:46;101928.50;;;2.20;100.00
71774;BME280;59607;52.130;5.430;2024-03-08T01:42:25;101925.06;;;2.19;100.00
71774;BME280;59607;52.130;5.430;2024-03-08T01:45:00;101926.06;;;2.17;100.00
71774;BME280;59607;52.130;5.430;2024-03-08T01:47:28;101927.72;;;2.18;100.00
71774;BME280;59607;52.130;5.430;2024-03-08T01:50:11;101925.38;;;2.13;100.00
71774;BME280;59607;52.130;5.430;2024-03-08T01:52:44;101913.28;;;2.14;100.00
71774;BME280;59607;52.130;5.430;2024-03-08T01:55:12;101913.47;;;2.11;100.00
71774;BME280;59607;52.130;5.430;2024-03-08T01:57:44;101911.75;;;2.09;100.00
71774;BME280;59607;52.130;5.430;2024-03-08T02:00:11;101908.44;;;2.07;100.00
71774;BME280;59607;52.130;5.430;2024-03-08T02:02:42;101909.34;;;2.06;100.00
71774;BME280;59607;52.130;5.430;2024-03-08T02:05:14;101908.59;;;2.04;100.00
71774;BME280;59607;52.130;5.430;2024-03-08T02:07:50;101904.41;;;2.02;100.00
71774;BME280;59607;52.130;5.430;2024-03-08T02:10:17;101905.41;;;1.99;100.00
71774;BME280;59607;52.130;5.430;2024-03-08T02:12:47;101902.81;;;1.99;100.00
71774;BME280;59607;52.130;5.430;2024-03-08T02:15:14;101903.63;;;2.00;100.00
71774;BME280;59607;52.130;5.430;2024-03-08T02:17:41;101902.91;;;1.97;100.00
71774;BME280;59607;52.130;5.430;2024-03-08T02:20:10;101903.06;;;1.94;100.00
71774;BME280;59607;52.130;5.430;2024-03-08T02:22:42;101891.09;;;1.92;100.00
71774;BME280;59607;52.130;5.430;2024-03-08T02:25:12;101894.63;;;1.91;100.00
71774;BME280;59607;52.130;5.430;2024-03-08T02:27:41;101890.38;;;1.90;100.00
71774;BME280;59607;52.130;5.430;2024-03-08T02:30:08;101889.59;;;1.88;100.00
71774;BME280;59607;52.130;5.430;2024-03-08T02:32:43;101884.44;;;1.88;100.00
71774;BME280;59607;52.130;5.430;2024-03-08T02:35:10;101879.41;;;1.84;100.00
71774;BME280;59607;52.130;5.430;2024-03-08T02:37:36;101877.72;;;1.83;100.00
71774;BME280;59607;52.130;5.430;2024-03-08T02:40:10;101871.81;;;1.81;100.00
71774;BME280;59607;52.130;5.430;2024-03-08T02:42:38;101862.28;;;1.82;100.00
71774;BME280;59607;52.130;5.430;2024-03-08T02:45:05;101864.94;;;1.80;100.00
71774;BME280;59607;52.130;5.430;2024-03-08T02:47:36;101865.88;;;1.79;100.00
71774;BME280;59607;52.130;5.430;2024-03-08T02:50:06;101864.22;;;1.78;100.00
71774;BME280;59607;52.130;5.430;2024-03-08T02:52:34;101862.69;;;1.74;100.00
71774;BME280;59607;52.130;5.430;2024-03-08T02:55:02;101859.28;;;1.74;100.00
71774;BME280;59607;52.130;5.430;2024-03-08T02:57:32;101852.50;;;1.71;100.00
71774;BME280;59607;52.130;5.430;2024-03-08T02:59:58;101851.00;;;1.67;100.00
71774;BME280;59607;52.130;5.430;2024-03-08T03:02:26;101845.81;;;1.67;100.00
71774;BME280;59607;52.130;5.430;2024-03-08T03:04:55;101850.22;;;1.65;100.00
71774;BME280;59607;52.130;5.430;2024-03-08T03:07:22;101841.72;;;1.63;100.00
71774;BME280;59607;52.130;5.430;2024-03-08T03:09:48;101841.72;;;1.63;100.00
71774;BME280;59607;52.130;5.430;2024-03-08T03:12:15;101833.13;;;1.62;100.00
71774;BME280;59607;52.130;5.430;2024-03-08T03:14:58;101831.59;;;1.58;100.00
71774;BME280;59607;52.130;5.430;2024-03-08T03:17:28;101832.53;;;1.57;100.00
71774;BME280;59607;52.130;5.430;2024-03-08T03:19:54;101828.16;;;1.57;100.00
71774;BME280;59607;52.130;5.430;2024-03-08T03:22:25;101836.78;;;1.58;100.00
71774;BME280;59607;52.130;5.430;2024-03-08T03:24:51;101829.94;;;1.57;100.00
71774;BME280;59607;52.130;5.430;2024-03-08T03:27:19;101820.56;;;1.54;100.00
71774;BME280;59607;52.130;5.430;2024-03-08T03:29:49;101821.56;;;1.52;100.00
71774;BME280;59607;52.130;5.430;2024-03-08T03:32:16;101821.56;;;1.52;100.00
71774;BME280;59607;52.130;5.430;2024-03-08T03:34:46;101822.59;;;1.49;100.00
71774;BME280;59607;52.130;5.430;2024-03-08T03:37:21;101808.88;;;1.47;100.00
71774;BME280;59607;52.130;5.430;2024-03-08T03:39:48;101816.56;;;1.48;100.00
71774;BME280;59607;52.130;5.430;2024-03-08T03:42:35;101813.22;;;1.46;100.00
71774;BME280;59607;52.130;5.430;2024-03-08T03:45:06;101811.63;;;1.44;100.00
71774;BME280;59607;52.130;5.430;2024-03-08T03:47:32;101810.88;;;1.42;100.00
71774;BME280;59607;52.130;5.430;2024-03-08T03:50:06;101803.28;;;1.39;100.00
71774;BME280;59607;52.130;5.430;2024-03-08T03:52:32;101811.03;;;1.39;100.00
71774;BME280;59607;52.130;5.430;2024-03-08T03:55:03;101804.19;;;1.38;100.00
71774;BME280;59607;52.130;5.430;2024-03-08T03:57:33;101808.59;;;1.35;100.00
71774;BME280;59607;52.130;5.430;2024-03-08T04:00:06;101800.00;;;1.35;100.00
71774;BME280;59607;52.130;5.430;2024-03-08T04:02:40;101812.84;;;1.37;100.00
71774;BME280;59607;52.130;5.430;2024-03-08T04:05:13;101806.00;;;1.35;100.00
71774;BME280;59607;52.130;5.430;2024-03-08T04:07:40;101798.41;;;1.32;100.00
71774;BME280;59607;52.130;5.430;2024-03-08T04:10:16;101801.84;;;1.33;100.00
71774;BME280;59607;52.130;5.430;2024-03-08T04:12:43;101807.00;;;1.33;100.00
71774;BME280;59607;52.130;5.430;2024-03-08T04:15:12;101792.41;;;1.32;100.00
71774;BME280;59607;52.130;5.430;2024-03-08T04:17:42;101791.50;;;1.33;100.00
71774;BME280;59607;52.130;5.430;2024-03-08T04:20:09;101789.06;;;1.30;100.00
71774;BME280;59607;52.130;5.430;2024-03-08T04:22:50;101789.13;;;1.28;100.00
71774;BME280;59607;52.130;5.430;2024-03-08T04:25:20;101792.56;;;1.29;100.00
71774;BME280;59607;52.130;5.430;2024-03-08T04:27:49;101785.81;;;1.26;100.00
71774;BME280;59607;52.130;5.430;2024-03-08T04:30:19;101785.81;;;1.26;100.00
71774;BME280;59607;52.130;5.430;2024-03-08T04:32:50;101779.88;;;1.24;100.00
71774;BME280;59607;52.130;5.430;2024-03-08T04:35:16;101785.03;;;1.24;100.00
71774;BME280;59607;52.130;5.430;2024-03-08T04:37:46;101781.63;;;1.23;100.00
71774;BME280;59607;52.130;5.430;2024-03-08T04:40:21;101780.88;;;1.21;100.00
71774;BME280;59607;52.130;5.430;2024-03-08T04:42:54;101784.34;;;1.20;100.00
71774;BME280;59607;52.130;5.430;2024-03-08T04:45:20;101775.78;;;1.20;100.00
71774;BME280;59607;52.130;5.430;2024-03-08T04:47:48;101778.44;;;1.18;100.00
71774;BME280;59607;52.130;5.430;2024-03-08T04:50:20;101780.19;;;1.18;100.00
71774;BME280;59607;52.130;5.430;2024-03-08T04:52:48;101776.75;;;1.17;100.00
71774;BME280;59607;52.130;5.430;2024-03-08T04:55:20;101777.69;;;1.16;100.00
71774;BME280;59607;52.130;5.430;2024-03-08T04:57:48;101765.59;;;1.17;100.00
71774;BME280;59607;52.130;5.430;2024-03-08T05:00:18;101768.31;;;1.14;100.00
71774;BME280;59607;52.130;5.430;2024-03-08T05:02:49;101766.66;;;1.13;100.00
71774;BME280;59607;52.130;5.430;2024-03-08T05:05:22;101763.22;;;1.12;100.00
71774;BME280;59607;52.130;5.430;2024-03-08T05:07:51;101765.16;;;1.08;100.00
71774;BME280;59607;52.130;5.430;2024-03-08T05:10:21;101764.31;;;1.08;100.00
71774;BME280;59607;52.130;5.430;2024-03-08T05:12:50;101770.31;;;1.08;100.00
71774;BME280;59607;52.130;5.430;2024-03-08T05:15:25;101768.72;;;1.06;100.00
71774;BME280;59607;52.130;5.430;2024-03-08T05:17:54;101766.06;;;1.07;100.00
71774;BME280;59607;52.130;5.430;2024-03-08T05:20:25;101765.31;;;1.05;100.00
71774;BME280;59607;52.130;5.430;2024-03-08T05:22:55;101763.63;;;1.04;100.00
71774;BME280;59607;52.130;5.430;2024-03-08T05:25:21;101765.31;;;1.05;100.00
71774;BME280;59607;52.130;5.430;2024-03-08T05:27:52;101759.31;;;1.05;100.00
71774;BME280;59607;52.130;5.430;2024-03-08T05:30:20;101754.28;;;1.02;100.00
71774;BME280;59607;52.130;5.430;2024-03-08T05:32:51;101753.53;;;1.00;100.00
71774;BME280;59607;52.130;5.430;2024-03-08T05:35:18;101759.59;;;0.98;100.00
71774;BME280;59607;52.130;5.430;2024-03-08T05:37:51;101757.09;;;0.97;100.00
71774;BME280;59607;52.130;5.430;2024-03-08T05:40:25;101757.19;;;0.95;100.00
71774;BME280;59607;52.130;5.430;2024-03-08T05:42:51;101750.16;;;0.97;100.00
71774;BME280;59607;52.130;5.430;2024-03-08T05:45:27;101746.09;;;0.93;100.00
71774;BME280;59607;52.130;5.430;2024-03-08T05:47:53;101747.75;;;0.94;100.00
71774;BME280;59607;52.130;5.430;2024-03-08T05:50:21;101749.50;;;0.94;100.00
71774;BME280;59607;52.130;5.430;2024-03-08T05:52:53;101742.56;;;0.94;100.00
71774;BME280;59607;52.130;5.430;2024-03-08T05:55:22;101743.41;;;0.95;100.00
71774;BME280;59607;52.130;5.430;2024-03-08T05:57:56;101740.91;;;0.93;100.00
71774;BME280;59607;52.130;5.430;2024-03-08T06:00:23;101734.81;;;0.94;100.00
71774;BME280;59607;52.130;5.430;2024-03-08T06:03:04;101731.44;;;0.94;100.00
71774;BME280;59607;52.130;5.430;2024-03-08T06:05:30;101733.16;;;0.93;100.00
71774;BME280;59607;52.130;5.430;2024-03-08T06:08:01;101722.91;;;0.92;100.00
71774;BME280;59607;52.130;5.430;2024-03-08T06:10:29;101727.16;;;0.93;100.00
71774;BME280;59607;52.130;5.430;2024-03-08T06:13:10;101729.66;;;0.94;100.00
71774;BME280;59607;52.130;5.430;2024-03-08T06:15:43;101723.59;;;0.95;100.00
71774;BME280;59607;52.130;5.430;2024-03-08T06:18:11;101729.59;;;0.96;100.00
71774;BME280;59607;52.130;5.430;2024-03-08T06:20:46;101726.84;;;0.99;100.00
71774;BME280;59607;52.130;5.430;2024-03-08T06:23:13;101725.09;;;1.00;100.00
71774;BME280;59607;52.130;5.430;2024-03-08T06:25:44;101722.53;;;1.00;100.00
71774;BME280;59607;52.130;5.430;2024-03-08T06:28:15;101717.28;;;1.01;100.00
71774;BME280;59607;52.130;5.430;2024-03-08T06:30:46;101726.63;;;1.04;100.00
71774;BME280;59607;52.130;5.430;2024-03-08T06:33:12;101729.13;;;1.05;100.00
71774;BME280;59607;52.130;5.430;2024-03-08T06:35:39;101727.28;;;1.07;100.00
71774;BME280;59607;52.130;5.430;2024-03-08T06:38:05;101721.88;;;1.12;100.00
71774;BME280;59607;52.130;5.430;2024-03-08T06:40:36;101724.31;;;1.15;100.00
71774;BME280;59607;52.130;5.430;2024-03-08T06:43:03;101725.75;;;1.21;100.00
71774;BME280;59607;52.130;5.430;2024-03-08T06:45:35;101718.69;;;1.25;100.00
71774;BME280;59607;52.130;5.430;2024-03-08T06:48:06;101711.59;;;1.28;100.00
71774;BME280;59607;52.130;5.430;2024-03-08T06:50:37;101716.56;;;1.33;100.00
71774;BME280;59607;52.130;5.430;2024-03-08T06:53:04;101718.91;;;1.38;100.00
71774;BME280;59607;52.130;5.430;2024-03-08T06:55:30;101710.28;;;1.37;100.00
71774;BME280;59607;52.130;5.430;2024-03-08T06:57:56;101709.13;;;1.43;100.00
71774;BME280;59607;52.130;5.430;2024-03-08T07:00:28;101706.25;;;1.49;100.00
71774;BME280;59607;52.130;5.430;2024-03-08T07:02:58;101710.31;;;1.53;100.00
71774;BME280;59607;52.130;5.430;2024-03-08T07:05:30;101709.16;;;1.59;100.00
71774;BME280;59607;52.130;5.430;2024-03-08T07:07:57;101708.16;;;1.62;100.00
71774;BME280;59607;52.130;5.430;2024-03-08T07:10:24;101704.31;;;1.69;100.00
71774;BME280;59607;52.130;5.430;2024-03-08T07:12:54;101704.91;;;1.74;100.00
71774;BME280;59607;52.130;5.430;2024-03-08T07:15:21;101705.41;;;1.81;100.00
71774;BME280;59607;52.130;5.430;2024-03-08T07:17:51;101709.41;;;1.87;100.00
71774;BME280;59607;52.130;5.430;2024-03-08T07:20:21;101706.50;;;1.93;100.00
71774;BME280;59607;52.130;5.430;2024-03-08T07:22:54;101706.91;;;2.01;100.00
71774;BME280;59607;52.130;5.430;2024-03-08T07:25:24;101704.63;;;2.11;100.00
71774;BME280;59607;52.130;5.430;2024-03-08T07:28:06;101701.72;;;2.17;100.00
71774;BME280;59607;52.130;5.430;2024-03-08T07:30:37;101685.84;;;2.24;100.00
71774;BME280;59607;52.130;5.430;2024-03-08T07:33:11;101681.13;;;2.30;100.00
71774;BME280;59607;52.130;5.430;2024-03-08T07:35:46;101681.31;;;2.27;100.00
71774;BME280;59607;52.130;5.430;2024-03-08T07:38:13;101682.13;;;2.44;100.00
71774;BME280;59607;52.130;5.430;2024-03-08T07:40:42;101677.59;;;2.47;100.00
71774;BME280;59607;52.130;5.430;2024-03-08T07:43:14;101675.69;;;2.51;100.00
71774;BME280;59607;52.130;5.430;2024-03-08T07:45:41;101673.81;;;2.53;100.00
71774;BME280;59607;52.130;5.430;2024-03-08T07:48:08;101672.06;;;2.54;100.00
71774;BME280;59607;52.130;5.430;2024-03-08T07:50:40;101668.28;;;2.59;100.00
71774;BME280;59607;52.130;5.430;2024-03-08T07:53:09;101672.00;;;2.70;100.00
71774;BME280;59607;52.130;5.430;2024-03-08T07:55:36;101677.47;;;2.80;100.00
71774;BME280;59607;52.130;5.430;2024-03-08T07:58:04;101659.63;;;2.90;100.00
71774;BME280;59607;52.130;5.430;2024-03-08T08:00:34;101663.59;;;2.95;100.00
71774;BME280;59607;52.130;5.430;2024-03-08T08:03:05;101657.69;;;3.08;100.00
71774;BME280;59607;52.130;5.430;2024-03-08T08:05:42;101658.13;;;3.15;100.00
71774;BME280;59607;52.130;5.430;2024-03-08T08:08:08;101649.34;;;3.17;100.00
71774;BME280;59607;52.130;5.430;2024-03-08T08:10:39;101650.72;;;3.23;100.00
71774;BME280;59607;52.130;5.430;2024-03-08T08:13:06;101649.44;;;3.30;100.00
71774;BME280;59607;52.130;5.430;2024-03-08T08:15:32;101643.03;;;3.36;100.00
71774;BME280;59607;52.130;5.430;2024-03-08T08:18:08;101642.44;;;3.45;100.00
71774;BME280;59607;52.130;5.430;2024-03-08T08:20:36;101642.09;;;3.52;100.00
71774;BME280;59607;52.130;5.430;2024-03-08T08:23:11;101633.53;;;3.64;100.00
71774;BME280;59607;52.130;5.430;2024-03-08T08:25:38;101634.69;;;3.73;100.00
71774;BME280;59607;52.130;5.430;2024-03-08T08:28:16;101637.84;;;3.78;100.00
71774;BME280;59607;52.130;5.430;2024-03-08T08:30:44;101630.94;;;3.92;100.00
71774;BME280;59607;52.130;5.430;2024-03-08T08:33:19;101629.50;;;4.01;100.00
71774;BME280;59607;52.130;5.430;2024-03-08T08:35:45;101629.09;;;3.94;100.00
71774;BME280;59607;52.130;5.430;2024-03-08T08:38:20;101628.13;;;3.95;100.00
71774;BME280;59607;52.130;5.430;2024-03-08T08:40:47;101620.69;;;4.03;100.00
71774;BME280;59607;52.130;5.430;2024-03-08T08:43:16;101610.00;;;4.08;100.00
71774;BME280;59607;52.130;5.430;2024-03-08T08:45:51;101615.94;;;4.10;100.00
71774;BME280;59607;52.130;5.430;2024-03-08T08:48:25;101604.41;;;4.27;100.00
71774;BME280;59607;52.130;5.430;2024-03-08T08:50:52;101601.31;;;4.48;100.00
71774;BME280;59607;52.130;5.430;2024-03-08T08:53:21;101596.84;;;4.63;100.00
71774;BME280;59607;52.130;5.430;2024-03-08T08:55:48;101597.19;;;4.59;100.00
71774;BME280;59607;52.130;5.430;2024-03-08T08:58:15;101593.75;;;4.58;100.00
71774;BME280;59607;52.130;5.430;2024-03-08T09:00:41;101589.69;;;4.54;100.00
71774;BME280;59607;52.130;5.430;2024-03-08T09:03:13;101593.22;;;4.66;100.00
71774;BME280;59607;52.130;5.430;2024-03-08T09:05:40;101588.94;;;4.91;100.00
71774;BME280;59607;52.130;5.430;2024-03-08T09:08:15;101585.44;;;5.16;100.00
71774;BME280;59607;52.130;5.430;2024-03-08T09:10:41;101577.88;;;5.00;100.00
71774;BME280;59607;52.130;5.430;2024-03-08T09:13:09;101581.34;;;4.88;100.00
71774;BME280;59607;52.130;5.430;2024-03-08T09:15:49;101576.78;;;4.91;100.00
71774;BME280;59607;52.130;5.430;2024-03-08T09:18:22;101570.72;;;5.04;100.00
71774;BME280;59607;52.130;5.430;2024-03-08T09:20:50;101571.22;;;5.09;100.00
71774;BME280;59607;52.130;5.430;2024-03-08T09:23:25;101564.31;;;5.21;100.00
71774;BME280;59607;52.130;5.430;2024-03-08T09:25:59;101567.88;;;5.45;100.00
71774;BME280;59607;52.130;5.430;2024-03-08T09:28:25;101551.59;;;5.54;100.00
71774;BME280;59607;52.130;5.430;2024-03-08T09:30:53;101541.19;;;5.54;100.00
71774;BME280;59607;52.130;5.430;2024-03-08T09:33:29;101546.44;;;5.65;100.00
71774;BME280;59607;52.130;5.430;2024-03-08T09:35:55;101544.38;;;5.82;100.00
71774;BME280;59607;52.130;5.430;2024-03-08T09:38:32;101540.81;;;5.83;100.00
71774;BME280;59607;52.130;5.430;2024-03-08T09:40:58;101540.59;;;5.86;99.89
71774;BME280;59607;52.130;5.430;2024-03-08T09:43:28;101534.78;;;5.94;100.00
71774;BME280;59607;52.130;5.430;2024-03-08T09:45:55;101530.19;;;5.98;99.96
71774;BME280;59607;52.130;5.430;2024-03-08T09:48:21;101527.31;;;6.14;99.75
71774;BME280;59607;52.130;5.430;2024-03-08T09:50:54;101513.59;;;6.35;99.52
71774;BME280;59607;52.130;5.430;2024-03-08T09:53:25;101512.63;;;6.59;99.69
71774;BME280;59607;52.130;5.430;2024-03-08T09:56:01;101509.19;;;6.81;97.80
71774;BME280;59607;52.130;5.430;2024-03-08T09:58:30;101504.09;;;6.79;97.62
71774;BME280;59607;52.130;5.430;2024-03-08T10:01:05;101500.88;;;6.87;95.46
71774;BME280;59607;52.130;5.430;2024-03-08T10:03:40;101494.97;;;6.74;95.14
71774;BME280;59607;52.130;5.430;2024-03-08T10:06:09;101498.28;;;6.64;93.72
71774;BME280;59607;52.130;5.430;2024-03-08T10:08:39;101492.47;;;6.72;95.78
71774;BME280;59607;52.130;5.430;2024-03-08T10:11:11;101489.84;;;6.95;94.93
71774;BME280;59607;52.130;5.430;2024-03-08T10:13:42;101488.19;;;6.94;94.85
71774;BME280;59607;52.130;5.430;2024-03-08T10:16:14;101484.34;;;7.10;94.16
71774;BME280;59607;52.130;5.430;2024-03-08T10:18:40;101474.78;;;7.20;92.91
71774;BME280;59607;52.130;5.430;2024-03-08T10:21:14;101466.28;;;7.18;92.61
71774;BME280;59607;52.130;5.430;2024-03-08T10:23:41;101464.81;;;7.25;91.61
71774;BME280;59607;52.130;5.430;2024-03-08T10:26:13;101453.75;;;7.33;91.60
71774;BME280;59607;52.130;5.430;2024-03-08T10:28:47;101441.41;;;7.35;93.00
71774;BME280;59607;52.130;5.430;2024-03-08T10:31:46;101450.72;;;7.49;91.62
71774;BME280;59607;52.130;5.430;2024-03-08T10:34:15;101436.78;;;7.60;91.32
71774;BME280;59607;52.130;5.430;2024-03-08T10:36:42;101435.22;;;7.79;91.35
71774;BME280;59607;52.130;5.430;2024-03-08T10:39:30;101441.22;;;7.91;90.51
71774;BME280;59607;52.130;5.430;2024-03-08T10:42:09;101417.63;;;8.02;89.91
71774;BME280;59607;52.130;5.430;2024-03-08T10:45:03;101419.31;;;8.13;89.60
71774;BME280;59607;52.130;5.430;2024-03-08T10:47:37;101418.06;;;8.08;86.00
71774;BME280;59607;52.130;5.430;2024-03-08T10:50:20;101418.78;;;7.88;85.78
71774;BME280;59607;52.130;5.430;2024-03-08T10:52:51;101410.31;;;8.06;87.64
71774;BME280;59607;52.130;5.430;2024-03-08T10:55:19;101404.50;;;7.93;86.61
71774;BME280;59607;52.130;5.430;2024-03-08T10:57:55;101406.25;;;7.82;86.62
71774;BME280;59607;52.130;5.430;2024-03-08T11:00:21;101401.97;;;7.81;87.80
71774;BME280;59607;52.130;5.430;2024-03-08T11:02:55;101389.41;;;7.96;87.13
71774;BME280;59607;52.130;5.430;2024-03-08T11:05:39;101379.88;;;8.26;87.73
71774;BME280;59607;52.130;5.430;2024-03-08T11:08:20;101371.09;;;8.47;85.61
71774;BME280;59607;52.130;5.430;2024-03-08T11:10:55;101364.66;;;8.51;84.31
71774;BME280;59607;52.130;5.430;2024-03-08T11:13:42;101358.41;;;8.33;82.81
71774;BME280;59607;52.130;5.430;2024-03-08T11:19:44;101354.63;;;8.76;81.64
71774;BME280;59607;52.130;5.430;2024-03-08T11:21:46;101353.00;;;8.75;81.46
71774;BME280;59607;52.130;5.430;2024-03-08T12:08:39;101245.19;;;9.86;72.51
71774;BME280;59607;52.130;5.430;2024-03-08T12:11:05;101252.09;;;10.05;73.07
71774;BME280;59607;52.130;5.430;2024-03-08T12:13:34;101254.25;;;10.10;70.50
71774;BME280;59607;52.130;5.430;2024-03-08T12:16:09;101239.59;;;9.99;71.33
71774;BME280;59607;52.130;5.430;2024-03-08T12:18:37;101239.72;;;9.97;70.71
71774;BME280;59607;52.130;5.430;2024-03-08T12:21:18;101244.59;;;10.10;70.83
71774;BME280;59607;52.130;5.430;2024-03-08T12:24:08;101234.25;;;9.91;70.26
71774;BME280;59607;52.130;5.430;2024-03-08T12:26:43;101231.56;;;10.00;69.13
71774;BME280;59607;52.130;5.430;2024-03-08T12:31:43;101222.72;;;10.02;70.12
71774;BME280;59607;52.130;5.430;2024-03-08T12:34:24;101221.09;;;10.00;69.63
71774;BME280;59607;52.130;5.430;2024-03-08T12:36:54;101204.09;;;10.05;69.82
71774;BME280;59607;52.130;5.430;2024-03-08T12:39:24;101200.69;;;10.31;71.20
71774;BME280;59607;52.130;5.430;2024-03-08T12:42:03;101200.41;;;10.34;68.98
71774;BME280;59607;52.130;5.430;2024-03-08T12:44:30;101188.03;;;10.26;68.30
71774;BME280;59607;52.130;5.430;2024-03-08T12:46:57;101186.59;;;10.32;68.70
71774;BME280;59607;52.130;5.430;2024-03-08T12:49:30;101193.13;;;10.28;67.44
71774;BME280;59607;52.130;5.430;2024-03-08T12:51:57;101195.22;;;10.24;68.30
71774;BME280;59607;52.130;5.430;2024-03-08T12:54:29;101184.97;;;10.31;68.35
71774;BME280;59607;52.130;5.430;2024-03-08T12:57:00;101184.88;;;10.41;69.78
71774;BME280;59607;52.130;5.430;2024-03-08T12:59:32;101173.19;;;10.35;67.64
71774;BME280;59607;52.130;5.430;2024-03-08T13:01:58;101180.88;;;10.28;69.15
71774;BME280;59607;52.130;5.430;2024-03-08T13:04:28;101175.63;;;10.28;68.72
71774;BME280;59607;52.130;5.430;2024-03-08T13:07:00;101175.50;;;10.38;68.54
71774;BME280;59607;52.130;5.430;2024-03-08T13:09:31;101167.94;;;10.35;66.97
71774;BME280;59607;52.130;5.430;2024-03-08T13:11:58;101170.69;;;10.25;67.36
71774;BME280;59607;52.130;5.430;2024-03-08T13:14:32;101147.31;;;10.14;66.54
71774;BME280;59607;52.130;5.430;2024-03-08T13:17:04;101147.91;;;10.07;68.11
71774;BME280;59607;52.130;5.430;2024-03-08T13:19:30;101144.31;;;10.27;68.48
71774;BME280;59607;52.130;5.430;2024-03-08T13:22:02;101142.97;;;10.22;66.96
71774;BME280;59607;52.130;5.430;2024-03-08T13:24:31;101149.19;;;10.21;68.69
71774;BME280;59607;52.130;5.430;2024-03-08T13:27:14;101144.72;;;10.40;69.60
71774;BME280;59607;52.130;5.430;2024-03-08T13:29:50;101138.47;;;10.59;69.94
71774;BME280;59607;52.130;5.430;2024-03-08T13:32:23;101131.94;;;10.64;67.53
71774;BME280;59607;52.130;5.430;2024-03-08T13:34:57;101135.63;;;10.53;68.57
71774;BME280;59607;52.130;5.430;2024-03-08T13:37:26;101137.81;;;10.57;65.99
71774;BME280;59607;52.130;5.430;2024-03-08T13:40:03;101131.69;;;10.48;67.32
71774;BME280;59607;52.130;5.430;2024-03-08T13:42:37;101121.75;;;10.60;67.88
71774;BME280;59607;52.130;5.430;2024-03-08T13:45:09;101126.28;;;10.50;65.72
71774;BME280;59607;52.130;5.430;2024-03-08T13:47:47;101120.56;;;10.55;67.62
71774;BME280;59607;52.130;5.430;2024-03-08T13:50:19;101117.06;;;10.46;66.19
71774;BME280;59607;52.130;5.430;2024-03-08T13:52:50;101115.88;;;10.40;66.47
71774;BME280;59607;52.130;5.430;2024-03-08T13:55:27;101106.03;;;10.60;66.87
71774;BME280;59607;52.130;5.430;2024-03-08T13:57:57;101109.50;;;10.43;66.67
71774;BME280;59607;52.130;5.430;2024-03-08T14:00:28;101101.28;;;10.37;67.07